sensor_id;sensor_type;location;lat;lon;timestamp;pressure;altitude;pressure_sealevel;temperature
20490;BMP280;10403;54.092;12.122;2023-12-22T00:00:01;98342.06;;;7.19
20490;BMP280;10403;54.092;12.122;2023-12-22T00:02:28;98324.13;;;7.13
20490;BMP280;10403;54.092;12.122;2023-12-22T00:04:56;98342.44;;;7.10
20490;BMP280;10403;54.092;12.122;2023-12-22T00:07:23;98344.25;;;7.07
20490;BMP280;10403;54.092;12.122;2023-12-22T00:09:53;98313.09;;;7.06
20490;BMP280;10403;54.092;12.122;2023-12-22T00:12:20;98310.59;;;7.04
20490;BMP280;10403;54.092;12.122;2023-12-22T00:14:47;98335.78;;;7.02
20490;BMP280;10403;54.092;12.122;2023-12-22T00:17:15;98338.38;;;7.02
20490;BMP280;10403;54.092;12.122;2023-12-22T00:19:42;98354.88;;;7.01
20490;BMP280;10403;54.092;12.122;2023-12-22T00:22:09;98351.38;;;7.02
20490;BMP280;10403;54.092;12.122;2023-12-22T00:24:37;98368.78;;;7.00
20490;BMP280;10403;54.092;12.122;2023-12-22T00:27:04;98361.44;;;6.88
20490;BMP280;10403;54.092;12.122;2023-12-22T00:29:31;98372.38;;;6.96
20490;BMP280;10403;54.092;12.122;2023-12-22T00:32:01;98346.34;;;6.98
20490;BMP280;10403;54.092;12.122;2023-12-22T00:34:28;98357.63;;;6.97
20490;BMP280;10403;54.092;12.122;2023-12-22T00:36:56;98377.72;;;6.93
20490;BMP280;10403;54.092;12.122;2023-12-22T00:39:23;98350.03;;;6.92
20490;BMP280;10403;54.092;12.122;2023-12-22T00:41:50;98376.13;;;6.89
20490;BMP280;10403;54.092;12.122;2023-12-22T00:44:17;98392.66;;;6.87
20490;BMP280;10403;54.092;12.122;2023-12-22T00:46:44;98422.31;;;6.81
20490;BMP280;10403;54.092;12.122;2023-12-22T00:49:11;98406.88;;;6.77
20490;BMP280;10403;54.092;12.122;2023-12-22T00:51:38;98375.84;;;6.74
20490;BMP280;10403;54.092;12.122;2023-12-22T00:54:05;98393.19;;;6.73
20490;BMP280;10403;54.092;12.122;2023-12-22T00:56:33;98422.69;;;6.71
20490;BMP280;10403;54.092;12.122;2023-12-22T00:59:00;98408.00;;;6.69
20490;BMP280;10403;54.092;12.122;2023-12-22T01:01:37;98402.81;;;6.69
20490;BMP280;10403;54.092;12.122;2023-12-22T01:04:04;98450.53;;;6.67
20490;BMP280;10403;54.092;12.122;2023-12-22T01:06:31;98413.31;;;6.66
20490;BMP280;10403;54.092;12.122;2023-12-22T01:08:59;98480.06;;;6.64
20490;BMP280;10403;54.092;12.122;2023-12-22T01:11:26;98421.94;;;6.67
20490;BMP280;10403;54.092;12.122;2023-12-22T01:13:53;98425.44;;;6.66
20490;BMP280;10403;54.092;12.122;2023-12-22T01:16:20;98454.19;;;6.61
20490;BMP280;10403;54.092;12.122;2023-12-22T01:18:50;98425.78;;;6.57
20490;BMP280;10403;54.092;12.122;2023-12-22T01:21:20;98452.53;;;6.59
20490;BMP280;10403;54.092;12.122;2023-12-22T01:23:47;98426.47;;;6.62
20490;BMP280;10403;54.092;12.122;2023-12-22T01:26:14;98442.97;;;6.61
20490;BMP280;10403;54.092;12.122;2023-12-22T01:28:41;98440.34;;;6.61
20490;BMP280;10403;54.092;12.122;2023-12-22T01:31:09;98436.06;;;6.60
20490;BMP280;10403;54.092;12.122;2023-12-22T01:33:36;98435.13;;;6.62
20490;BMP280;10403;54.092;12.122;2023-12-22T01:36:03;98499.25;;;6.60
20490;BMP280;10403;54.092;12.122;2023-12-22T01:38:31;98479.25;;;6.62
20490;BMP280;10403;54.092;12.122;2023-12-22T01:40:58;98458.53;;;6.61
20490;BMP280;10403;54.092;12.122;2023-12-22T01:43:25;98446.66;;;6.54
20490;BMP280;10403;54.092;12.122;2023-12-22T01:45:56;98469.91;;;6.57
20490;BMP280;10403;54.092;12.122;2023-12-22T01:48:25;98436.09;;;6.58
20490;BMP280;10403;54.092;12.122;2023-12-22T01:50:56;98471.66;;;6.56
20490;BMP280;10403;54.092;12.122;2023-12-22T01:53:25;98445.06;;;6.50
20490;BMP280;10403;54.092;12.122;2023-12-22T01:55:55;98444.97;;;6.53
20490;BMP280;10403;54.092;12.122;2023-12-22T01:58:23;98450.78;;;6.59
20490;BMP280;10403;54.092;12.122;2023-12-22T02:00:53;98432.66;;;6.58
20490;BMP280;10403;54.092;12.122;2023-12-22T02:03:21;98422.19;;;6.61
20490;BMP280;10403;54.092;12.122;2023-12-22T02:05:49;98433.47;;;6.60
20490;BMP280;10403;54.092;12.122;2023-12-22T02:08:22;98455.09;;;6.60
20490;BMP280;10403;54.092;12.122;2023-12-22T02:10:51;98436.09;;;6.58
20490;BMP280;10403;54.092;12.122;2023-12-22T02:13:18;98441.47;;;6.54
20490;BMP280;10403;54.092;12.122;2023-12-22T02:15:49;98473.38;;;6.57
20490;BMP280;10403;54.092;12.122;2023-12-22T02:18:26;98375.94;;;6.22
20490;BMP280;10403;54.092;12.122;2023-12-22T02:20:53;98460.25;;;6.62
20490;BMP280;10403;54.092;12.122;2023-12-22T02:23:20;98455.94;;;6.61
20490;BMP280;10403;54.092;12.122;2023-12-22T02:25:56;98439.47;;;6.62
20490;BMP280;10403;54.092;12.122;2023-12-22T02:28:25;98414.44;;;6.59
20490;BMP280;10403;54.092;12.122;2023-12-22T02:31:16;98486.22;;;6.62
20490;BMP280;10403;54.092;12.122;2023-12-22T02:33:47;98433.47;;;6.60
20490;BMP280;10403;54.092;12.122;2023-12-22T02:36:16;98422.22;;;6.59
20490;BMP280;10403;54.092;12.122;2023-12-22T02:38:45;98449.03;;;6.60
20490;BMP280;10403;54.092;12.122;2023-12-22T02:41:14;98406.59;;;6.61
20490;BMP280;10403;54.092;12.122;2023-12-22T02:43:41;98424.72;;;6.62
20490;BMP280;10403;54.092;12.122;2023-12-22T02:46:15;98405.59;;;6.65
20490;BMP280;10403;54.092;12.122;2023-12-22T02:48:42;98406.38;;;6.67
20490;BMP280;10403;54.092;12.122;2023-12-22T02:51:10;98400.50;;;6.62
20490;BMP280;10403;54.092;12.122;2023-12-22T02:53:37;98396.81;;;6.67
20490;BMP280;10403;54.092;12.122;2023-12-22T02:56:04;98393.28;;;6.70
20490;BMP280;10403;54.092;12.122;2023-12-22T02:58:31;98399.28;;;6.72
20490;BMP280;10403;54.092;12.122;2023-12-22T03:00:59;98384.44;;;6.76
20490;BMP280;10403;54.092;12.122;2023-12-22T03:03:26;98397.34;;;6.77
20490;BMP280;10403;54.092;12.122;2023-12-22T03:05:53;98399.03;;;6.78
20490;BMP280;10403;54.092;12.122;2023-12-22T03:08:20;98406.84;;;6.78
20490;BMP280;10403;54.092;12.122;2023-12-22T03:10:47;98393.84;;;6.78
20490;BMP280;10403;54.092;12.122;2023-12-22T03:13:14;98393.00;;;6.78
20490;BMP280;10403;54.092;12.122;2023-12-22T03:15:41;98396.44;;;6.78
20490;BMP280;10403;54.092;12.122;2023-12-22T03:18:09;98418.13;;;6.77
20490;BMP280;10403;54.092;12.122;2023-12-22T03:20:36;98405.09;;;6.79
20490;BMP280;10403;54.092;12.122;2023-12-22T03:23:03;98421.53;;;6.79
20490;BMP280;10403;54.092;12.122;2023-12-22T03:25:30;98403.38;;;6.78
20490;BMP280;10403;54.092;12.122;2023-12-22T03:27:57;98407.63;;;6.80
20490;BMP280;10403;54.092;12.122;2023-12-22T03:30:25;98404.13;;;6.81
20490;BMP280;10403;54.092;12.122;2023-12-22T03:32:52;98398.00;;;6.84
20490;BMP280;10403;54.092;12.122;2023-12-22T03:35:19;98414.28;;;6.87
20490;BMP280;10403;54.092;12.122;2023-12-22T03:37:46;98408.25;;;6.87
20490;BMP280;10403;54.092;12.122;2023-12-22T03:40:14;98400.41;;;6.88
20490;BMP280;10403;54.092;12.122;2023-12-22T03:42:41;98377.91;;;6.87
20490;BMP280;10403;54.092;12.122;2023-12-22T03:45:08;98423.84;;;6.87
20490;BMP280;10403;54.092;12.122;2023-12-22T03:47:35;98396.25;;;6.84
20490;BMP280;10403;54.092;12.122;2023-12-22T03:50:03;98449.81;;;6.87
20490;BMP280;10403;54.092;12.122;2023-12-22T03:52:30;98452.53;;;6.84
20490;BMP280;10403;54.092;12.122;2023-12-22T03:54:57;98406.69;;;6.83
20490;BMP280;10403;54.092;12.122;2023-12-22T03:57:24;98398.00;;;6.84
20490;BMP280;10403;54.092;12.122;2023-12-22T03:59:52;98417.06;;;6.83
20490;BMP280;10403;54.092;12.122;2023-12-22T04:02:19;98401.53;;;6.81
20490;BMP280;10403;54.092;12.122;2023-12-22T04:04:46;98393.84;;;6.78
20490;BMP280;10403;54.092;12.122;2023-12-22T04:07:13;98406.88;;;6.77
20490;BMP280;10403;54.092;12.122;2023-12-22T04:09:40;98399.94;;;6.77
20490;BMP280;10403;54.092;12.122;2023-12-22T04:12:07;98414.06;;;6.70
20490;BMP280;10403;54.092;12.122;2023-12-22T04:14:34;98445.94;;;6.75
20490;BMP280;10403;54.092;12.122;2023-12-22T04:17:02;98429.53;;;6.73
20490;BMP280;10403;54.092;12.122;2023-12-22T04:19:29;98426.38;;;6.65
20490;BMP280;10403;54.092;12.122;2023-12-22T04:21:56;98434.31;;;6.60
20490;BMP280;10403;54.092;12.122;2023-12-22T04:24:23;98451.88;;;6.54
20490;BMP280;10403;54.092;12.122;2023-12-22T04:26:50;98460.75;;;6.47
20490;BMP280;10403;54.092;12.122;2023-12-22T04:29:17;98432.44;;;6.39
20490;BMP280;10403;54.092;12.122;2023-12-22T04:31:44;98435.94;;;6.38
20490;BMP280;10403;54.092;12.122;2023-12-22T04:34:15;98429.22;;;6.32
20490;BMP280;10403;54.092;12.122;2023-12-22T04:36:43;98428.44;;;6.30
20490;BMP280;10403;54.092;12.122;2023-12-22T04:39:10;98445.13;;;6.23
20490;BMP280;10403;54.092;12.122;2023-12-22T04:41:37;98428.53;;;6.27
20490;BMP280;10403;54.092;12.122;2023-12-22T04:44:04;98483.97;;;6.26
20490;BMP280;10403;54.092;12.122;2023-12-22T04:46:31;98444.31;;;6.21
20490;BMP280;10403;54.092;12.122;2023-12-22T04:48:58;98435.84;;;6.16
20490;BMP280;10403;54.092;12.122;2023-12-22T04:51:26;98428.97;;;6.15
20490;BMP280;10403;54.092;12.122;2023-12-22T04:53:53;98422.13;;;6.13
20490;BMP280;10403;54.092;12.122;2023-12-22T04:56:20;98441.22;;;6.10
20490;BMP280;10403;54.092;12.122;2023-12-22T04:58:47;98430.00;;;6.10
20490;BMP280;10403;54.092;12.122;2023-12-22T05:01:14;98436.06;;;6.09
20490;BMP280;10403;54.092;12.122;2023-12-22T05:03:42;98415.44;;;6.06
20490;BMP280;10403;54.092;12.122;2023-12-22T05:06:09;98429.31;;;6.05
20490;BMP280;10403;54.092;12.122;2023-12-22T05:08:36;98410.34;;;6.03
20490;BMP280;10403;54.092;12.122;2023-12-22T05:11:03;98398.34;;;5.99
20490;BMP280;10403;54.092;12.122;2023-12-22T05:13:30;98377.81;;;5.92
20490;BMP280;10403;54.092;12.122;2023-12-22T05:15:57;98383.22;;;5.85
20490;BMP280;10403;54.092;12.122;2023-12-22T05:18:25;98376.06;;;5.93
20490;BMP280;10403;54.092;12.122;2023-12-22T05:20:53;98416.06;;;5.86
20490;BMP280;10403;54.092;12.122;2023-12-22T05:23:21;98390.13;;;5.86
20490;BMP280;10403;54.092;12.122;2023-12-22T05:25:48;98419.53;;;5.85
20490;BMP280;10403;54.092;12.122;2023-12-22T05:28:15;98396.38;;;5.79
20490;BMP280;10403;54.092;12.122;2023-12-22T05:30:42;98386.69;;;5.85
20490;BMP280;10403;54.092;12.122;2023-12-22T05:33:09;98401.34;;;5.86
20490;BMP280;10403;54.092;12.122;2023-12-22T05:35:36;98378.19;;;5.80
20490;BMP280;10403;54.092;12.122;2023-12-22T05:38:06;98390.91;;;5.88
20490;BMP280;10403;54.092;12.122;2023-12-22T05:40:34;98407.28;;;5.90
20490;BMP280;10403;54.092;12.122;2023-12-22T05:43:01;98379.56;;;5.92
20490;BMP280;10403;54.092;12.122;2023-12-22T05:45:28;98401.13;;;5.94
20490;BMP280;10403;54.092;12.122;2023-12-22T05:47:55;98388.94;;;5.96
20490;BMP280;10403;54.092;12.122;2023-12-22T05:50:23;98398.31;;;6.00
20490;BMP280;10403;54.092;12.122;2023-12-22T05:52:50;98410.28;;;6.04
20490;BMP280;10403;54.092;12.122;2023-12-22T05:55:17;98408.50;;;6.06
20490;BMP280;10403;54.092;12.122;2023-12-22T05:57:44;98415.28;;;6.10
20490;BMP280;10403;54.092;12.122;2023-12-22T06:00:13;98435.94;;;6.13
20490;BMP280;10403;54.092;12.122;2023-12-22T06:02:42;98430.66;;;6.16
20490;BMP280;10403;54.092;12.122;2023-12-22T06:05:09;98442.69;;;6.17
20490;BMP280;10403;54.092;12.122;2023-12-22T06:07:36;98433.88;;;6.23
20490;BMP280;10403;54.092;12.122;2023-12-22T06:10:04;98419.97;;;6.25
20490;BMP280;10403;54.092;12.122;2023-12-22T06:12:31;98451.00;;;6.28
20490;BMP280;10403;54.092;12.122;2023-12-22T06:14:58;98504.59;;;6.29
20490;BMP280;10403;54.092;12.122;2023-12-22T06:17:25;98449.09;;;6.34
20490;BMP280;10403;54.092;12.122;2023-12-22T06:19:52;98495.69;;;6.37
20490;BMP280;10403;54.092;12.122;2023-12-22T06:22:20;98475.75;;;6.39
20490;BMP280;10403;54.092;12.122;2023-12-22T06:24:48;98452.38;;;6.39
20490;BMP280;10403;54.092;12.122;2023-12-22T06:27:15;98481.72;;;6.41
20490;BMP280;10403;54.092;12.122;2023-12-22T06:29:42;98459.13;;;6.44
20490;BMP280;10403;54.092;12.122;2023-12-22T06:32:09;98472.91;;;6.46
20490;BMP280;10403;54.092;12.122;2023-12-22T06:34:36;98463.28;;;6.48
20490;BMP280;10403;54.092;12.122;2023-12-22T06:37:04;98467.84;;;6.42
20490;BMP280;10403;54.092;12.122;2023-12-22T06:39:31;98500.44;;;6.50
20490;BMP280;10403;54.092;12.122;2023-12-22T06:41:58;98501.25;;;6.52
20490;BMP280;10403;54.092;12.122;2023-12-22T06:44:25;98524.63;;;6.52
20490;BMP280;10403;54.092;12.122;2023-12-22T06:46:53;98511.59;;;6.54
20490;BMP280;10403;54.092;12.122;2023-12-22T06:49:20;98515.91;;;6.55
20490;BMP280;10403;54.092;12.122;2023-12-22T06:51:48;98465.34;;;6.39
20490;BMP280;10403;54.092;12.122;2023-12-22T06:54:15;98499.47;;;6.54
20490;BMP280;10403;54.092;12.122;2023-12-22T06:56:44;98535.81;;;6.54
20490;BMP280;10403;54.092;12.122;2023-12-22T06:59:11;98525.38;;;6.56
20490;BMP280;10403;54.092;12.122;2023-12-22T07:01:41;98503.09;;;6.49
20490;BMP280;10403;54.092;12.122;2023-12-22T07:04:18;98553.16;;;6.54
20490;BMP280;10403;54.092;12.122;2023-12-22T07:06:45;98595.59;;;6.53
20490;BMP280;10403;54.092;12.122;2023-12-22T07:11:47;98585.19;;;6.53
20490;BMP280;10403;54.092;12.122;2023-12-22T07:14:14;98570.56;;;6.50
20490;BMP280;10403;54.092;12.122;2023-12-22T07:16:42;98587.84;;;6.51
20490;BMP280;10403;54.092;12.122;2023-12-22T07:19:10;98549.03;;;6.47
20490;BMP280;10403;54.092;12.122;2023-12-22T07:21:41;98575.78;;;6.49
20490;BMP280;10403;54.092;12.122;2023-12-22T07:24:13;98662.25;;;6.52
20490;BMP280;10403;54.092;12.122;2023-12-22T07:26:42;98625.03;;;6.52
20490;BMP280;10403;54.092;12.122;2023-12-22T07:29:11;98579.19;;;6.51
20490;BMP280;10403;54.092;12.122;2023-12-22T07:31:38;98599.16;;;6.49
20490;BMP280;10403;54.092;12.122;2023-12-22T07:34:06;98611.25;;;6.50
20490;BMP280;10403;54.092;12.122;2023-12-22T07:36:35;98571.41;;;6.51
20490;BMP280;10403;54.092;12.122;2023-12-22T07:39:14;98604.34;;;6.49
20490;BMP280;10403;54.092;12.122;2023-12-22T07:41:44;98622.50;;;6.50
20490;BMP280;10403;54.092;12.122;2023-12-22T07:44:13;98627.72;;;6.49
20490;BMP280;10403;54.092;12.122;2023-12-22T07:46:41;98618.06;;;6.54
20490;BMP280;10403;54.092;12.122;2023-12-22T07:49:10;98624.00;;;6.57
20490;BMP280;10403;54.092;12.122;2023-12-22T07:51:38;98630.03;;;6.58
20490;BMP280;10403;54.092;12.122;2023-12-22T07:54:07;98649.03;;;6.60
20490;BMP280;10403;54.092;12.122;2023-12-22T07:56:35;98649.09;;;6.57
20490;BMP280;10403;54.092;12.122;2023-12-22T07:59:03;98647.44;;;6.56
20490;BMP280;10403;54.092;12.122;2023-12-22T08:01:49;98647.31;;;6.59
20490;BMP280;10403;54.092;12.122;2023-12-22T08:04:16;98662.25;;;6.52
20490;BMP280;10403;54.092;12.122;2023-12-22T08:06:43;98652.63;;;6.56
20490;BMP280;10403;54.092;12.122;2023-12-22T08:09:10;98691.47;;;6.59
20490;BMP280;10403;54.092;12.122;2023-12-22T08:11:37;98687.22;;;6.56
20490;BMP280;10403;54.092;12.122;2023-12-22T08:14:04;98688.19;;;6.54
20490;BMP280;10403;54.092;12.122;2023-12-22T08:16:32;98704.69;;;6.51
20490;BMP280;10403;54.092;12.122;2023-12-22T08:18:59;98659.78;;;6.48
20490;BMP280;10403;54.092;12.122;2023-12-22T08:21:27;98710.09;;;6.45
20490;BMP280;10403;54.092;12.122;2023-12-22T08:24:09;98730.91;;;6.44
20490;BMP280;10403;54.092;12.122;2023-12-22T08:26:47;98704.25;;;6.37
20490;BMP280;10403;54.092;12.122;2023-12-22T08:29:15;98736.41;;;6.33
20490;BMP280;10403;54.092;12.122;2023-12-22T08:31:43;98774.31;;;6.39
20490;BMP280;10403;54.092;12.122;2023-12-22T08:34:13;98758.75;;;6.37
20490;BMP280;10403;54.092;12.122;2023-12-22T08:36:40;98772.59;;;6.38
20490;BMP280;10403;54.092;12.122;2023-12-22T08:39:07;98724.09;;;6.40
20490;BMP280;10403;54.092;12.122;2023-12-22T08:41:35;98742.41;;;6.35
20490;BMP280;10403;54.092;12.122;2023-12-22T08:44:06;98758.69;;;6.40
20490;BMP280;10403;54.092;12.122;2023-12-22T08:46:34;98759.53;;;6.41
20490;BMP280;10403;54.092;12.122;2023-12-22T08:49:02;98741.50;;;6.36
20490;BMP280;10403;54.092;12.122;2023-12-22T08:51:31;98771.59;;;6.43
20490;BMP280;10403;54.092;12.122;2023-12-22T08:53:58;98836.47;;;6.45
20490;BMP280;10403;54.092;12.122;2023-12-22T08:56:26;98741.28;;;6.44
20490;BMP280;10403;54.092;12.122;2023-12-22T08:58:56;98754.13;;;6.48
20490;BMP280;10403;54.092;12.122;2023-12-22T09:01:26;98838.97;;;6.48
20490;BMP280;10403;54.092;12.122;2023-12-22T09:03:53;98775.88;;;6.44
20490;BMP280;10403;54.092;12.122;2023-12-22T09:06:22;98793.88;;;6.50
20490;BMP280;10403;54.092;12.122;2023-12-22T09:08:50;98821.56;;;6.51
20490;BMP280;10403;54.092;12.122;2023-12-22T09:11:19;98751.50;;;6.19
20490;BMP280;10403;54.092;12.122;2023-12-22T09:13:47;98793.88;;;6.50
20490;BMP280;10403;54.092;12.122;2023-12-22T09:16:20;98812.06;;;6.50
20490;BMP280;10403;54.092;12.122;2023-12-22T09:18:48;98812.06;;;6.50
20490;BMP280;10403;54.092;12.122;2023-12-22T09:21:18;98806.03;;;6.48
20490;BMP280;10403;54.092;12.122;2023-12-22T09:23:46;98828.69;;;6.45
20490;BMP280;10403;54.092;12.122;2023-12-22T09:26:14;98844.88;;;6.53
20490;BMP280;10403;54.092;12.122;2023-12-22T09:28:42;98863.97;;;6.52
20490;BMP280;10403;54.092;12.122;2023-12-22T09:31:10;98859.72;;;6.48
20490;BMP280;10403;54.092;12.122;2023-12-22T09:33:37;98851.03;;;6.49
20490;BMP280;10403;54.092;12.122;2023-12-22T09:36:05;98884.78;;;6.50
20490;BMP280;10403;54.092;12.122;2023-12-22T09:38:32;98838.88;;;6.51
20490;BMP280;10403;54.092;12.122;2023-12-22T09:41:01;98834.50;;;6.53
20490;BMP280;10403;54.092;12.122;2023-12-22T09:43:29;98856.97;;;6.54
20490;BMP280;10403;54.092;12.122;2023-12-22T09:45:58;98896.09;;;6.48
20490;BMP280;10403;54.092;12.122;2023-12-22T09:48:27;98853.66;;;6.49
20490;BMP280;10403;54.092;12.122;2023-12-22T09:50:57;98842.25;;;6.54
20490;BMP280;10403;54.092;12.122;2023-12-22T09:53:27;98875.97;;;6.56
20490;BMP280;10403;54.092;12.122;2023-12-22T09:55:55;98840.50;;;6.55
20490;BMP280;10403;54.092;12.122;2023-12-22T09:58:22;98848.19;;;6.58
20490;BMP280;10403;54.092;12.122;2023-12-22T10:00:52;98857.03;;;6.52
20490;BMP280;10403;54.092;12.122;2023-12-22T10:03:21;98850.81;;;6.56
20490;BMP280;10403;54.092;12.122;2023-12-22T10:05:48;98900.06;;;6.61
20490;BMP280;10403;54.092;12.122;2023-12-22T10:08:18;98883.66;;;6.59
20490;BMP280;10403;54.092;12.122;2023-12-22T10:10:47;98887.16;;;6.58
20490;BMP280;10403;54.092;12.122;2023-12-22T10:13:15;98914.00;;;6.57
20490;BMP280;10403;54.092;12.122;2023-12-22T10:15:44;98885.84;;;6.43
20490;BMP280;10403;54.092;12.122;2023-12-22T10:18:13;98941.78;;;6.55
20490;BMP280;10403;54.092;12.122;2023-12-22T10:20:40;98904.59;;;6.54
20490;BMP280;10403;54.092;12.122;2023-12-22T10:23:08;98919.28;;;6.55
20490;BMP280;10403;54.092;12.122;2023-12-22T10:25:35;98895.22;;;6.47
20490;BMP280;10403;54.092;12.122;2023-12-22T10:28:02;98928.84;;;6.53
20490;BMP280;10403;54.092;12.122;2023-12-22T10:30:31;98903.72;;;6.54
20490;BMP280;10403;54.092;12.122;2023-12-22T10:32:59;98950.63;;;6.48
20490;BMP280;10403;54.092;12.122;2023-12-22T10:35:27;98896.09;;;6.48
20490;BMP280;10403;54.092;12.122;2023-12-22T10:37:55;98932.31;;;6.54
20490;BMP280;10403;54.092;12.122;2023-12-22T10:40:27;98859.25;;;6.35
20490;BMP280;10403;54.092;12.122;2023-12-22T10:42:54;98928.81;;;6.55
20490;BMP280;10403;54.092;12.122;2023-12-22T10:45:22;98933.94;;;6.56
20490;BMP280;10403;54.092;12.122;2023-12-22T10:47:50;98917.53;;;6.56
20490;BMP280;10403;54.092;12.122;2023-12-22T10:50:19;98947.00;;;6.55
20490;BMP280;10403;54.092;12.122;2023-12-22T10:52:50;98953.06;;;6.54
20490;BMP280;10403;54.092;12.122;2023-12-22T10:55:19;98943.53;;;6.54
20490;BMP280;10403;54.092;12.122;2023-12-22T10:57:47;98941.84;;;6.53
20490;BMP280;10403;54.092;12.122;2023-12-22T11:00:20;98909.00;;;6.51
20490;BMP280;10403;54.092;12.122;2023-12-22T11:02:49;98978.28;;;6.49
20490;BMP280;10403;54.092;12.122;2023-12-22T11:05:20;98953.16;;;6.51
20490;BMP280;10403;54.092;12.122;2023-12-22T11:07:49;98929.69;;;6.54
20490;BMP280;10403;54.092;12.122;2023-12-22T11:10:20;98996.38;;;6.53
20490;BMP280;10403;54.092;12.122;2023-12-22T11:12:49;98937.53;;;6.52
20490;BMP280;10403;54.092;12.122;2023-12-22T11:15:18;98927.09;;;6.54
20490;BMP280;10403;54.092;12.122;2023-12-22T11:17:51;98934.91;;;6.54
20490;BMP280;10403;54.092;12.122;2023-12-22T11:20:21;98949.59;;;6.55
20490;BMP280;10403;54.092;12.122;2023-12-22T11:22:52;98973.81;;;6.55
20490;BMP280;10403;54.092;12.122;2023-12-22T11:25:20;98961.59;;;6.59
20490;BMP280;10403;54.092;12.122;2023-12-22T11:27:53;98966.78;;;6.59
20490;BMP280;10403;54.092;12.122;2023-12-22T11:30:24;98968.66;;;6.54
20490;BMP280;10403;54.092;12.122;2023-12-22T11:32:53;98984.97;;;6.59
20490;BMP280;10403;54.092;12.122;2023-12-22T11:35:23;98970.19;;;6.61
20490;BMP280;10403;54.092;12.122;2023-12-22T11:38:01;98968.47;;;6.60
20490;BMP280;10403;54.092;12.122;2023-12-22T11:40:31;98989.34;;;6.57
20490;BMP280;10403;54.092;12.122;2023-12-22T11:43:00;99000.47;;;6.62
20490;BMP280;10403;54.092;12.122;2023-12-22T11:45:31;98980.53;;;6.62
20490;BMP280;10403;54.092;12.122;2023-12-22T11:48:09;99001.31;;;6.62
20490;BMP280;10403;54.092;12.122;2023-12-22T11:50:37;98973.84;;;6.54
20490;BMP280;10403;54.092;12.122;2023-12-22T11:53:23;98984.06;;;6.60
20490;BMP280;10403;54.092;12.122;2023-12-22T11:56:05;99023.09;;;6.57
20490;BMP280;10403;54.092;12.122;2023-12-22T11:58:46;99000.66;;;6.56
20490;BMP280;10403;54.092;12.122;2023-12-22T12:01:24;98990.28;;;6.54
20490;BMP280;10403;54.092;12.122;2023-12-22T12:03:57;98966.91;;;6.54
20490;BMP280;10403;54.092;12.122;2023-12-22T12:08:54;98971.25;;;6.54
20490;BMP280;10403;54.092;12.122;2023-12-22T12:11:22;99018.84;;;6.54
20490;BMP280;10403;54.092;12.122;2023-12-22T12:13:50;98983.41;;;6.52
20490;BMP280;10403;54.092;12.122;2023-12-22T12:16:20;98973.09;;;6.49
20490;BMP280;10403;54.092;12.122;2023-12-22T12:18:52;98981.84;;;6.46
20490;BMP280;10403;54.092;12.122;2023-12-22T12:21:20;98973.22;;;6.46
20490;BMP280;10403;54.092;12.122;2023-12-22T12:23:49;99007.81;;;6.46
20490;BMP280;10403;54.092;12.122;2023-12-22T12:26:17;98985.34;;;6.45
20490;BMP280;10403;54.092;12.122;2023-12-22T12:28:45;98968.91;;;6.45
20490;BMP280;10403;54.092;12.122;2023-12-22T12:31:14;98974.13;;;6.43
20490;BMP280;10403;54.092;12.122;2023-12-22T12:33:42;98983.06;;;6.31
20490;BMP280;10403;54.092;12.122;2023-12-22T12:36:11;99011.38;;;6.42
20490;BMP280;10403;54.092;12.122;2023-12-22T12:38:55;98981.09;;;6.41
20490;BMP280;10403;54.092;12.122;2023-12-22T12:41:31;98977.69;;;6.39
20490;BMP280;10403;54.092;12.122;2023-12-22T12:44:04;98987.25;;;6.37
20490;BMP280;10403;54.092;12.122;2023-12-22T12:46:38;98985.56;;;6.36
20490;BMP280;10403;54.092;12.122;2023-12-22T12:49:11;98945.16;;;6.26
20490;BMP280;10403;54.092;12.122;2023-12-22T12:51:41;98978.69;;;6.34
20490;BMP280;10403;54.092;12.122;2023-12-22T12:54:11;98966.78;;;6.26
20490;BMP280;10403;54.092;12.122;2023-12-22T12:56:45;98975.28;;;6.31
20490;BMP280;10403;54.092;12.122;2023-12-22T12:59:16;98977.06;;;6.29
20490;BMP280;10403;54.092;12.122;2023-12-22T13:01:47;98998.72;;;6.28
20490;BMP280;10403;54.092;12.122;2023-12-22T13:04:15;98990.94;;;6.28
20490;BMP280;10403;54.092;12.122;2023-12-22T13:06:49;98985.84;;;6.25
20490;BMP280;10403;54.092;12.122;2023-12-22T13:09:19;99014.63;;;6.16
20490;BMP280;10403;54.092;12.122;2023-12-22T13:11:46;98966.03;;;6.21
20490;BMP280;10403;54.092;12.122;2023-12-22T13:14:25;98943.78;;;6.11
20490;BMP280;10403;54.092;12.122;2023-12-22T13:16:55;99000.63;;;6.22
20490;BMP280;10403;54.092;12.122;2023-12-22T13:19:25;98999.75;;;6.21
20490;BMP280;10403;54.092;12.122;2023-12-22T13:21:54;98985.97;;;6.19
20490;BMP280;10403;54.092;12.122;2023-12-22T13:24:22;98979.06;;;6.18
20490;BMP280;10403;54.092;12.122;2023-12-22T13:27:03;98991.31;;;6.13
20490;BMP280;10403;54.092;12.122;2023-12-22T13:29:45;98999.81;;;6.18
20490;BMP280;10403;54.092;12.122;2023-12-22T13:32:20;99009.34;;;6.18
20490;BMP280;10403;54.092;12.122;2023-12-22T13:34:55;99018.25;;;6.08
20490;BMP280;10403;54.092;12.122;2023-12-22T13:37:23;99025.03;;;6.15
20490;BMP280;10403;54.092;12.122;2023-12-22T13:39:53;99021.69;;;6.08
20490;BMP280;10403;54.092;12.122;2023-12-22T13:42:21;98997.56;;;6.06
20490;BMP280;10403;54.092;12.122;2023-12-22T13:44:49;99027.69;;;6.12
20490;BMP280;10403;54.092;12.122;2023-12-22T13:47:21;99023.41;;;6.09
20490;BMP280;10403;54.092;12.122;2023-12-22T13:49:49;99024.28;;;6.10
20490;BMP280;10403;54.092;12.122;2023-12-22T13:52:31;99044.19;;;6.09
20490;BMP280;10403;54.092;12.122;2023-12-22T13:55:14;99030.34;;;6.09
20490;BMP280;10403;54.092;12.122;2023-12-22T13:57:44;99005.41;;;6.03
20490;BMP280;10403;54.092;12.122;2023-12-22T14:02:49;99027.88;;;6.04
20490;BMP280;10403;54.092;12.122;2023-12-22T14:05:20;99053.81;;;6.04
20490;BMP280;10403;54.092;12.122;2023-12-22T14:07:48;99053.94;;;5.98
20490;BMP280;10403;54.092;12.122;2023-12-22T14:10:16;99026.25;;;5.99
20490;BMP280;10403;54.092;12.122;2023-12-22T14:12:44;99036.63;;;5.99
20490;BMP280;10403;54.092;12.122;2023-12-22T14:15:12;99028.81;;;6.00
20490;BMP280;10403;54.092;12.122;2023-12-22T14:17:40;99070.31;;;6.02
20490;BMP280;10403;54.092;12.122;2023-12-22T14:20:10;99076.34;;;6.02
20490;BMP280;10403;54.092;12.122;2023-12-22T14:22:39;99059.94;;;6.02
20490;BMP280;10403;54.092;12.122;2023-12-22T14:25:07;99062.56;;;6.00